sensor_id;sensor_type;location;lat;lon;timestamp;temperature;humidity
23748;DHT22;12054;53.662;10.126;2022-08-01T00:00:06;20.30;99.90
23748;DHT22;12054;53.662;10.126;2022-08-01T00:02:32;20.30;99.90
23748;DHT22;12054;53.662;10.126;2022-08-01T00:04:58;20.20;99.90
23748;DHT22;12054;53.662;10.126;2022-08-01T00:07:25;20.20;99.90
23748;DHT22;12054;53.662;10.126;2022-08-01T00:09:51;20.20;99.90
23748;DHT22;12054;53.662;10.126;2022-08-01T00:12:17;20.20;99.90
23748;DHT22;12054;53.662;10.126;2022-08-01T00:14:42;20.30;99.90
23748;DHT22;12054;53.662;10.126;2022-08-01T00:17:08;20.20;99.90
23748;DHT22;12054;53.662;10.126;2022-08-01T00:19:33;20.20;99.90
23748;DHT22;12054;53.662;10.126;2022-08-01T00:21:59;20.20;99.90
23748;DHT22;12054;53.662;10.126;2022-08-01T00:24:25;20.20;99.90
23748;DHT22;12054;53.662;10.126;2022-08-01T00:26:51;20.20;99.90
23748;DHT22;12054;53.662;10.126;2022-08-01T00:29:16;20.20;99.90
23748;DHT22;12054;53.662;10.126;2022-08-01T00:31:42;20.20;99.90
23748;DHT22;12054;53.662;10.126;2022-08-01T00:34:07;20.20;99.90
23748;DHT22;12054;53.662;10.126;2022-08-01T00:36:33;20.20;99.90
23748;DHT22;12054;53.662;10.126;2022-08-01T00:38:58;20.20;99.90
23748;DHT22;12054;53.662;10.126;2022-08-01T00:41:23;20.20;99.90
23748;DHT22;12054;53.662;10.126;2022-08-01T00:43:49;20.20;99.90
23748;DHT22;12054;53.662;10.126;2022-08-01T00:46:15;20.20;99.90
23748;DHT22;12054;53.662;10.126;2022-08-01T00:48:40;20.20;99.90
23748;DHT22;12054;53.662;10.126;2022-08-01T00:51:07;20.20;99.90
23748;DHT22;12054;53.662;10.126;2022-08-01T00:53:32;20.20;99.90
23748;DHT22;12054;53.662;10.126;2022-08-01T00:55:59;20.20;99.90
23748;DHT22;12054;53.662;10.126;2022-08-01T00:58:25;20.20;99.90
23748;DHT22;12054;53.662;10.126;2022-08-01T01:00:50;20.10;99.90
23748;DHT22;12054;53.662;10.126;2022-08-01T01:03:16;20.20;99.90
23748;DHT22;12054;53.662;10.126;2022-08-01T01:06:11;20.10;99.90
23748;DHT22;12054;53.662;10.126;2022-08-01T01:14:53;20.10;99.90
23748;DHT22;12054;53.662;10.126;2022-08-01T01:17:25;20.10;99.90
23748;DHT22;12054;53.662;10.126;2022-08-01T01:19:54;20.10;99.90
23748;DHT22;12054;53.662;10.126;2022-08-01T01:25:28;20.10;99.90
23748;DHT22;12054;53.662;10.126;2022-08-01T01:28:15;20.10;99.90
23748;DHT22;12054;53.662;10.126;2022-08-01T01:30:45;20.10;99.90
23748;DHT22;12054;53.662;10.126;2022-08-01T01:33:12;20.10;99.90
23748;DHT22;12054;53.662;10.126;2022-08-01T01:35:44;20.10;99.90
23748;DHT22;12054;53.662;10.126;2022-08-01T01:38:17;20.10;99.90
23748;DHT22;12054;53.662;10.126;2022-08-01T01:40:44;20.10;99.90
23748;DHT22;12054;53.662;10.126;2022-08-01T01:43:11;20.10;99.90
23748;DHT22;12054;53.662;10.126;2022-08-01T01:45:37;20.10;99.90
23748;DHT22;12054;53.662;10.126;2022-08-01T01:48:04;20.10;99.90
23748;DHT22;12054;53.662;10.126;2022-08-01T01:50:32;20.00;99.90
23748;DHT22;12054;53.662;10.126;2022-08-01T01:52:58;20.00;99.90
23748;DHT22;12054;53.662;10.126;2022-08-01T01:55:25;20.00;99.90
23748;DHT22;12054;53.662;10.126;2022-08-01T01:57:51;20.00;99.90
23748;DHT22;12054;53.662;10.126;2022-08-01T02:00:18;20.00;99.90
23748;DHT22;12054;53.662;10.126;2022-08-01T02:02:44;20.00;99.90
23748;DHT22;12054;53.662;10.126;2022-08-01T02:05:12;20.00;99.90
23748;DHT22;12054;53.662;10.126;2022-08-01T02:07:38;20.00;99.90
23748;DHT22;12054;53.662;10.126;2022-08-01T02:10:05;20.00;99.90
23748;DHT22;12054;53.662;10.126;2022-08-01T02:12:37;20.00;99.90
23748;DHT22;12054;53.662;10.126;2022-08-01T02:15:03;20.00;99.90
23748;DHT22;12054;53.662;10.126;2022-08-01T02:17:30;20.00;99.90
23748;DHT22;12054;53.662;10.126;2022-08-01T02:19:57;20.00;99.90
23748;DHT22;12054;53.662;10.126;2022-08-01T02:22:29;20.00;99.90
23748;DHT22;12054;53.662;10.126;2022-08-01T02:25:20;20.00;99.90
23748;DHT22;12054;53.662;10.126;2022-08-01T02:27:58;20.00;99.90
23748;DHT22;12054;53.662;10.126;2022-08-01T02:30:31;20.00;99.90
23748;DHT22;12054;53.662;10.126;2022-08-01T02:33:20;20.00;99.90
23748;DHT22;12054;53.662;10.126;2022-08-01T02:35:50;20.00;99.90
23748;DHT22;12054;53.662;10.126;2022-08-01T02:38:17;20.00;99.90
23748;DHT22;12054;53.662;10.126;2022-08-01T02:40:46;19.90;99.90
23748;DHT22;12054;53.662;10.126;2022-08-01T02:43:17;19.90;99.90
23748;DHT22;12054;53.662;10.126;2022-08-01T02:45:46;19.90;99.90
23748;DHT22;12054;53.662;10.126;2022-08-01T02:48:14;19.90;99.90
23748;DHT22;12054;53.662;10.126;2022-08-01T02:50:42;19.90;99.90
23748;DHT22;12054;53.662;10.126;2022-08-01T02:53:11;19.90;99.90
23748;DHT22;12054;53.662;10.126;2022-08-01T02:55:39;19.90;99.90
23748;DHT22;12054;53.662;10.126;2022-08-01T02:58:07;19.90;99.90
23748;DHT22;12054;53.662;10.126;2022-08-01T03:00:34;19.90;99.90
23748;DHT22;12054;53.662;10.126;2022-08-01T03:03:01;19.90;99.90
23748;DHT22;12054;53.662;10.126;2022-08-01T03:05:28;19.90;99.90
23748;DHT22;12054;53.662;10.126;2022-08-01T03:07:56;19.90;99.90
23748;DHT22;12054;53.662;10.126;2022-08-01T03:10:24;19.90;99.90
23748;DHT22;12054;53.662;10.126;2022-08-01T03:12:52;19.90;99.90
23748;DHT22;12054;53.662;10.126;2022-08-01T03:15:18;19.90;99.90
23748;DHT22;12054;53.662;10.126;2022-08-01T03:17:45;19.90;99.90
23748;DHT22;12054;53.662;10.126;2022-08-01T03:20:14;19.90;99.90
23748;DHT22;12054;53.662;10.126;2022-08-01T03:22:42;19.90;99.90
23748;DHT22;12054;53.662;10.126;2022-08-01T03:25:10;19.90;99.90
23748;DHT22;12054;53.662;10.126;2022-08-01T03:27:37;19.90;99.90
23748;DHT22;12054;53.662;10.126;2022-08-01T03:30:06;19.90;99.90
23748;DHT22;12054;53.662;10.126;2022-08-01T03:32:32;19.90;99.90
23748;DHT22;12054;53.662;10.126;2022-08-01T03:34:57;19.90;99.90
23748;DHT22;12054;53.662;10.126;2022-08-01T03:37:27;19.90;99.90
23748;DHT22;12054;53.662;10.126;2022-08-01T03:40:00;19.90;99.90
23748;DHT22;12054;53.662;10.126;2022-08-01T03:42:56;19.90;99.90
23748;DHT22;12054;53.662;10.126;2022-08-01T03:45:25;19.90;99.90
23748;DHT22;12054;53.662;10.126;2022-08-01T03:50:51;19.90;99.90
23748;DHT22;12054;53.662;10.126;2022-08-01T03:53:22;19.90;99.90
23748;DHT22;12054;53.662;10.126;2022-08-01T03:55:48;19.90;99.90
23748;DHT22;12054;53.662;10.126;2022-08-01T03:58:14;19.90;99.90
23748;DHT22;12054;53.662;10.126;2022-08-01T04:00:40;19.90;99.90
23748;DHT22;12054;53.662;10.126;2022-08-01T04:03:08;19.90;99.90
23748;DHT22;12054;53.662;10.126;2022-08-01T04:05:34;19.90;99.90
23748;DHT22;12054;53.662;10.126;2022-08-01T04:08:00;19.90;99.90
23748;DHT22;12054;53.662;10.126;2022-08-01T04:10:28;19.90;99.90
23748;DHT22;12054;53.662;10.126;2022-08-01T04:12:53;19.90;99.90
23748;DHT22;12054;53.662;10.126;2022-08-01T04:15:19;19.90;99.90
23748;DHT22;12054;53.662;10.126;2022-08-01T04:17:45;19.90;99.90
23748;DHT22;12054;53.662;10.126;2022-08-01T04:20:11;19.90;99.90
23748;DHT22;12054;53.662;10.126;2022-08-01T04:22:37;19.90;99.90
23748;DHT22;12054;53.662;10.126;2022-08-01T04:25:07;19.80;99.90
23748;DHT22;12054;53.662;10.126;2022-08-01T04:27:38;19.80;99.90
23748;DHT22;12054;53.662;10.126;2022-08-01T04:30:05;19.90;99.90
23748;DHT22;12054;53.662;10.126;2022-08-01T04:32:33;19.90;99.90
23748;DHT22;12054;53.662;10.126;2022-08-01T04:35:06;19.90;99.90
23748;DHT22;12054;53.662;10.126;2022-08-01T04:37:33;19.90;99.90
23748;DHT22;12054;53.662;10.126;2022-08-01T04:40:03;19.80;99.90
23748;DHT22;12054;53.662;10.126;2022-08-01T04:42:30;19.80;99.90
23748;DHT22;12054;53.662;10.126;2022-08-01T04:44:57;19.90;99.90
23748;DHT22;12054;53.662;10.126;2022-08-01T04:47:23;19.80;99.90
23748;DHT22;12054;53.662;10.126;2022-08-01T04:49:50;19.80;99.90
23748;DHT22;12054;53.662;10.126;2022-08-01T04:52:16;19.90;99.90
23748;DHT22;12054;53.662;10.126;2022-08-01T04:54:43;19.80;99.90
23748;DHT22;12054;53.662;10.126;2022-08-01T04:57:09;19.80;99.90
23748;DHT22;12054;53.662;10.126;2022-08-01T04:59:36;19.80;99.90
23748;DHT22;12054;53.662;10.126;2022-08-01T05:02:14;19.80;99.90
23748;DHT22;12054;53.662;10.126;2022-08-01T05:04:41;19.80;99.90
23748;DHT22;12054;53.662;10.126;2022-08-01T05:07:08;19.80;99.90
23748;DHT22;12054;53.662;10.126;2022-08-01T05:09:34;19.80;99.90
23748;DHT22;12054;53.662;10.126;2022-08-01T05:12:02;19.80;99.90
23748;DHT22;12054;53.662;10.126;2022-08-01T05:14:29;19.80;99.90
23748;DHT22;12054;53.662;10.126;2022-08-01T05:16:58;19.70;99.90
23748;DHT22;12054;53.662;10.126;2022-08-01T05:19:24;19.70;99.90
23748;DHT22;12054;53.662;10.126;2022-08-01T05:21:49;19.70;99.90
23748;DHT22;12054;53.662;10.126;2022-08-01T05:24:15;19.70;99.90
23748;DHT22;12054;53.662;10.126;2022-08-01T05:26:41;19.70;99.90
23748;DHT22;12054;53.662;10.126;2022-08-01T05:29:06;19.70;99.90
23748;DHT22;12054;53.662;10.126;2022-08-01T05:31:33;19.70;99.90
23748;DHT22;12054;53.662;10.126;2022-08-01T05:34:00;19.70;99.90
23748;DHT22;12054;53.662;10.126;2022-08-01T05:36:26;19.70;99.90
23748;DHT22;12054;53.662;10.126;2022-08-01T05:38:52;19.80;99.90
23748;DHT22;12054;53.662;10.126;2022-08-01T05:41:17;19.80;99.90
23748;DHT22;12054;53.662;10.126;2022-08-01T05:43:43;19.80;99.90
23748;DHT22;12054;53.662;10.126;2022-08-01T05:46:08;19.80;99.90
23748;DHT22;12054;53.662;10.126;2022-08-01T05:48:34;19.80;99.90
23748;DHT22;12054;53.662;10.126;2022-08-01T05:50:59;19.80;99.90
23748;DHT22;12054;53.662;10.126;2022-08-01T05:53:25;19.80;99.90
23748;DHT22;12054;53.662;10.126;2022-08-01T05:55:51;19.80;99.90
23748;DHT22;12054;53.662;10.126;2022-08-01T05:58:16;19.80;99.90
23748;DHT22;12054;53.662;10.126;2022-08-01T06:00:42;19.80;99.90
23748;DHT22;12054;53.662;10.126;2022-08-01T06:03:07;19.80;99.90
23748;DHT22;12054;53.662;10.126;2022-08-01T06:05:33;19.80;99.90
23748;DHT22;12054;53.662;10.126;2022-08-01T06:07:58;19.80;99.90
23748;DHT22;12054;53.662;10.126;2022-08-01T06:10:24;19.80;99.90
23748;DHT22;12054;53.662;10.126;2022-08-01T06:12:49;19.80;99.90
23748;DHT22;12054;53.662;10.126;2022-08-01T06:15:16;19.80;99.90
23748;DHT22;12054;53.662;10.126;2022-08-01T06:17:41;19.80;99.90
23748;DHT22;12054;53.662;10.126;2022-08-01T06:20:08;19.80;99.90
23748;DHT22;12054;53.662;10.126;2022-08-01T06:22:33;19.80;99.90
23748;DHT22;12054;53.662;10.126;2022-08-01T06:24:59;19.80;99.90
23748;DHT22;12054;53.662;10.126;2022-08-01T06:27:24;19.80;99.90
23748;DHT22;12054;53.662;10.126;2022-08-01T06:29:51;19.80;99.90
23748;DHT22;12054;53.662;10.126;2022-08-01T06:32:19;19.80;99.90
23748;DHT22;12054;53.662;10.126;2022-08-01T06:34:44;19.80;99.90
23748;DHT22;12054;53.662;10.126;2022-08-01T06:37:10;19.80;99.90
23748;DHT22;12054;53.662;10.126;2022-08-01T06:39:38;19.80;99.90
23748;DHT22;12054;53.662;10.126;2022-08-01T06:42:03;19.80;99.90
23748;DHT22;12054;53.662;10.126;2022-08-01T06:44:29;19.80;99.90
23748;DHT22;12054;53.662;10.126;2022-08-01T06:46:54;19.80;99.90
23748;DHT22;12054;53.662;10.126;2022-08-01T06:49:20;19.80;99.90
23748;DHT22;12054;53.662;10.126;2022-08-01T06:51:45;19.80;99.90
23748;DHT22;12054;53.662;10.126;2022-08-01T06:54:11;19.90;99.90
23748;DHT22;12054;53.662;10.126;2022-08-01T06:56:37;19.90;99.90
23748;DHT22;12054;53.662;10.126;2022-08-01T06:59:02;19.90;99.90
23748;DHT22;12054;53.662;10.126;2022-08-01T07:01:28;19.80;99.90
23748;DHT22;12054;53.662;10.126;2022-08-01T07:03:54;19.80;99.90
23748;DHT22;12054;53.662;10.126;2022-08-01T07:06:24;19.90;99.90
23748;DHT22;12054;53.662;10.126;2022-08-01T07:08:50;19.90;99.90
23748;DHT22;12054;53.662;10.126;2022-08-01T07:11:16;19.90;99.90
23748;DHT22;12054;53.662;10.126;2022-08-01T07:13:41;19.90;99.90
23748;DHT22;12054;53.662;10.126;2022-08-01T07:16:07;19.90;99.90
23748;DHT22;12054;53.662;10.126;2022-08-01T07:18:32;19.90;99.90
23748;DHT22;12054;53.662;10.126;2022-08-01T07:20:58;19.90;99.90
23748;DHT22;12054;53.662;10.126;2022-08-01T07:23:23;19.90;99.90
23748;DHT22;12054;53.662;10.126;2022-08-01T07:25:49;19.90;99.90
23748;DHT22;12054;53.662;10.126;2022-08-01T07:28:16;19.90;99.90
23748;DHT22;12054;53.662;10.126;2022-08-01T07:30:41;19.90;99.90
23748;DHT22;12054;53.662;10.126;2022-08-01T07:33:09;19.90;99.90
23748;DHT22;12054;53.662;10.126;2022-08-01T07:35:35;19.90;99.90
23748;DHT22;12054;53.662;10.126;2022-08-01T07:38:04;19.90;99.90
23748;DHT22;12054;53.662;10.126;2022-08-01T07:40:29;19.90;99.90
23748;DHT22;12054;53.662;10.126;2022-08-01T07:42:55;19.90;99.90
23748;DHT22;12054;53.662;10.126;2022-08-01T07:45:22;19.90;99.90
23748;DHT22;12054;53.662;10.126;2022-08-01T07:47:47;19.90;99.90
23748;DHT22;12054;53.662;10.126;2022-08-01T07:50:15;19.90;99.90
23748;DHT22;12054;53.662;10.126;2022-08-01T07:52:42;19.90;99.90
23748;DHT22;12054;53.662;10.126;2022-08-01T07:55:08;19.90;99.90
23748;DHT22;12054;53.662;10.126;2022-08-01T07:57:34;19.80;99.90
23748;DHT22;12054;53.662;10.126;2022-08-01T08:00:00;19.80;99.90
23748;DHT22;12054;53.662;10.126;2022-08-01T08:02:26;19.80;99.90
23748;DHT22;12054;53.662;10.126;2022-08-01T08:04:52;19.90;99.90
23748;DHT22;12054;53.662;10.126;2022-08-01T08:07:17;19.90;99.90
23748;DHT22;12054;53.662;10.126;2022-08-01T08:09:43;19.90;99.90
23748;DHT22;12054;53.662;10.126;2022-08-01T08:12:09;19.90;99.90
23748;DHT22;12054;53.662;10.126;2022-08-01T08:14:35;19.90;99.90
23748;DHT22;12054;53.662;10.126;2022-08-01T08:17:01;19.90;99.90
23748;DHT22;12054;53.662;10.126;2022-08-01T08:19:26;19.90;99.90
23748;DHT22;12054;53.662;10.126;2022-08-01T08:21:52;19.90;99.90
23748;DHT22;12054;53.662;10.126;2022-08-01T08:24:17;19.90;99.90
23748;DHT22;12054;53.662;10.126;2022-08-01T08:26:54;20.00;99.90
23748;DHT22;12054;53.662;10.126;2022-08-01T08:29:20;20.00;99.90
23748;DHT22;12054;53.662;10.126;2022-08-01T08:31:47;20.00;99.90
23748;DHT22;12054;53.662;10.126;2022-08-01T08:34:12;20.00;99.90
23748;DHT22;12054;53.662;10.126;2022-08-01T08:36:38;20.10;99.90
23748;DHT22;12054;53.662;10.126;2022-08-01T08:39:04;20.10;99.90
23748;DHT22;12054;53.662;10.126;2022-08-01T08:41:30;20.10;99.90
23748;DHT22;12054;53.662;10.126;2022-08-01T08:43:56;20.10;99.90
23748;DHT22;12054;53.662;10.126;2022-08-01T08:46:25;20.20;99.90
23748;DHT22;12054;53.662;10.126;2022-08-01T08:48:52;20.20;99.90
23748;DHT22;12054;53.662;10.126;2022-08-01T08:51:17;20.30;99.90
23748;DHT22;12054;53.662;10.126;2022-08-01T08:53:46;20.20;99.90
23748;DHT22;12054;53.662;10.126;2022-08-01T08:56:13;20.20;99.90
23748;DHT22;12054;53.662;10.126;2022-08-01T08:58:41;20.20;99.90
23748;DHT22;12054;53.662;10.126;2022-08-01T09:01:09;20.30;99.90
23748;DHT22;12054;53.662;10.126;2022-08-01T09:03:35;20.20;99.90
23748;DHT22;12054;53.662;10.126;2022-08-01T09:06:02;20.30;99.90
23748;DHT22;12054;53.662;10.126;2022-08-01T09:08:28;20.40;99.90
23748;DHT22;12054;53.662;10.126;2022-08-01T09:10:54;20.50;99.90
23748;DHT22;12054;53.662;10.126;2022-08-01T09:13:19;20.70;99.90
23748;DHT22;12054;53.662;10.126;2022-08-01T09:15:53;20.70;99.90
23748;DHT22;12054;53.662;10.126;2022-08-01T09:18:39;20.80;99.90
23748;DHT22;12054;53.662;10.126;2022-08-01T09:23:50;20.90;99.90
23748;DHT22;12054;53.662;10.126;2022-08-01T09:26:18;21.10;99.90
23748;DHT22;12054;53.662;10.126;2022-08-01T09:28:45;21.20;99.90
23748;DHT22;12054;53.662;10.126;2022-08-01T09:31:16;21.30;99.90
23748;DHT22;12054;53.662;10.126;2022-08-01T09:34:00;21.40;99.90
23748;DHT22;12054;53.662;10.126;2022-08-01T09:36:53;21.40;99.90
23748;DHT22;12054;53.662;10.126;2022-08-01T09:39:25;21.60;99.90
23748;DHT22;12054;53.662;10.126;2022-08-01T09:41:53;21.70;99.90
23748;DHT22;12054;53.662;10.126;2022-08-01T09:44:19;21.90;99.90
23748;DHT22;12054;53.662;10.126;2022-08-01T09:49:31;22.20;99.90
23748;DHT22;12054;53.662;10.126;2022-08-01T09:51:58;22.30;99.90
23748;DHT22;12054;53.662;10.126;2022-08-01T09:54:34;22.30;99.90
23748;DHT22;12054;53.662;10.126;2022-08-01T09:57:14;22.40;99.90
23748;DHT22;12054;53.662;10.126;2022-08-01T09:59:45;22.50;99.90
23748;DHT22;12054;53.662;10.126;2022-08-01T10:02:13;22.60;99.90
23748;DHT22;12054;53.662;10.126;2022-08-01T10:04:50;22.60;99.90
23748;DHT22;12054;53.662;10.126;2022-08-01T10:07:17;22.70;99.90
23748;DHT22;12054;53.662;10.126;2022-08-01T10:09:44;22.80;99.90
23748;DHT22;12054;53.662;10.126;2022-08-01T10:12:13;22.90;99.90
23748;DHT22;12054;53.662;10.126;2022-08-01T10:14:39;23.00;99.90
23748;DHT22;12054;53.662;10.126;2022-08-01T10:17:07;23.00;99.90
23748;DHT22;12054;53.662;10.126;2022-08-01T10:19:35;23.10;99.90
23748;DHT22;12054;53.662;10.126;2022-08-01T10:22:01;23.20;99.90
23748;DHT22;12054;53.662;10.126;2022-08-01T10:24:28;23.30;99.90
23748;DHT22;12054;53.662;10.126;2022-08-01T10:27:02;23.40;99.90
23748;DHT22;12054;53.662;10.126;2022-08-01T10:29:34;23.50;99.60
23748;DHT22;12054;53.662;10.126;2022-08-01T10:32:00;23.60;99.20
23748;DHT22;12054;53.662;10.126;2022-08-01T10:34:27;23.70;98.80
23748;DHT22;12054;53.662;10.126;2022-08-01T10:36:54;23.80;98.70
23748;DHT22;12054;53.662;10.126;2022-08-01T10:39:20;23.90;98.30
23748;DHT22;12054;53.662;10.126;2022-08-01T10:41:46;24.00;97.90
23748;DHT22;12054;53.662;10.126;2022-08-01T10:44:12;24.10;97.40
23748;DHT22;12054;53.662;10.126;2022-08-01T10:46:39;24.10;97.20
23748;DHT22;12054;53.662;10.126;2022-08-01T10:49:09;24.30;97.40
23748;DHT22;12054;53.662;10.126;2022-08-01T10:51:37;24.30;97.60
23748;DHT22;12054;53.662;10.126;2022-08-01T10:54:06;24.40;97.30
23748;DHT22;12054;53.662;10.126;2022-08-01T10:56:49;24.50;96.90
23748;DHT22;12054;53.662;10.126;2022-08-01T10:59:20;24.60;95.20
23748;DHT22;12054;53.662;10.126;2022-08-01T11:01:59;24.60;95.20
23748;DHT22;12054;53.662;10.126;2022-08-01T11:04:54;24.70;94.70
23748;DHT22;12054;53.662;10.126;2022-08-01T11:07:43;24.80;94.30
23748;DHT22;12054;53.662;10.126;2022-08-01T11:10:24;24.90;94.20
23748;DHT22;12054;53.662;10.126;2022-08-01T11:12:50;25.00;94.20
23748;DHT22;12054;53.662;10.126;2022-08-01T11:15:18;25.00;94.20
23748;DHT22;12054;53.662;10.126;2022-08-01T11:17:50;25.00;93.40
23748;DHT22;12054;53.662;10.126;2022-08-01T11:20:20;25.00;93.30
23748;DHT22;12054;53.662;10.126;2022-08-01T11:26:05;25.20;92.50
23748;DHT22;12054;53.662;10.126;2022-08-01T11:30:40;25.40;92.50
23748;DHT22;12054;53.662;10.126;2022-08-01T11:33:06;25.40;91.90
23748;DHT22;12054;53.662;10.126;2022-08-01T11:35:32;25.50;91.30
23748;DHT22;12054;53.662;10.126;2022-08-01T11:38:22;25.50;90.80
23748;DHT22;12054;53.662;10.126;2022-08-01T11:46:44;25.70;90.30
23748;DHT22;12054;53.662;10.126;2022-08-01T11:49:27;25.70;90.20
23748;DHT22;12054;53.662;10.126;2022-08-01T11:54:31;25.80;90.10
23748;DHT22;12054;53.662;10.126;2022-08-01T11:56:59;25.90;90.30
23748;DHT22;12054;53.662;10.126;2022-08-01T11:59:25;26.00;89.80
23748;DHT22;12054;53.662;10.126;2022-08-01T12:01:50;26.00;89.70
23748;DHT22;12054;53.662;10.126;2022-08-01T12:04:16;26.00;88.60
23748;DHT22;12054;53.662;10.126;2022-08-01T12:06:42;26.10;87.40
23748;DHT22;12054;53.662;10.126;2022-08-01T12:09:22;26.10;86.80
23748;DHT22;12054;53.662;10.126;2022-08-01T12:11:48;26.10;85.20
23748;DHT22;12054;53.662;10.126;2022-08-01T12:14:18;26.20;85.40
23748;DHT22;12054;53.662;10.126;2022-08-01T12:16:52;26.20;86.20
23748;DHT22;12054;53.662;10.126;2022-08-01T12:19:23;26.20;86.00
23748;DHT22;12054;53.662;10.126;2022-08-01T12:22:12;26.20;85.90
23748;DHT22;12054;53.662;10.126;2022-08-01T12:24:40;26.20;84.80
23748;DHT22;12054;53.662;10.126;2022-08-01T12:27:07;26.30;85.70
23748;DHT22;12054;53.662;10.126;2022-08-01T12:29:41;26.40;85.60
23748;DHT22;12054;53.662;10.126;2022-08-01T12:32:32;26.40;84.60
23748;DHT22;12054;53.662;10.126;2022-08-01T12:35:06;26.40;84.60
23748;DHT22;12054;53.662;10.126;2022-08-01T12:37:38;26.40;84.90
23748;DHT22;12054;53.662;10.126;2022-08-01T12:40:17;26.40;85.00
23748;DHT22;12054;53.662;10.126;2022-08-01T12:42:45;26.50;84.40
23748;DHT22;12054;53.662;10.126;2022-08-01T12:45:19;26.50;84.20
23748;DHT22;12054;53.662;10.126;2022-08-01T12:47:45;26.60;83.40
23748;DHT22;12054;53.662;10.126;2022-08-01T12:50:16;26.70;82.30
23748;DHT22;12054;53.662;10.126;2022-08-01T12:52:43;26.70;80.80
23748;DHT22;12054;53.662;10.126;2022-08-01T12:57:42;26.70;80.80
23748;DHT22;12054;53.662;10.126;2022-08-01T13:00:14;26.80;81.30
23748;DHT22;12054;53.662;10.126;2022-08-01T13:02:41;26.80;80.90
23748;DHT22;12054;53.662;10.126;2022-08-01T13:05:07;26.80;79.10
23748;DHT22;12054;53.662;10.126;2022-08-01T13:07:40;26.80;78.40
23748;DHT22;12054;53.662;10.126;2022-08-01T13:10:06;26.70;77.90
23748;DHT22;12054;53.662;10.126;2022-08-01T13:12:32;26.70;77.60
23748;DHT22;12054;53.662;10.126;2022-08-01T13:14:58;26.70;76.80
23748;DHT22;12054;53.662;10.126;2022-08-01T13:17:34;26.70;76.10
23748;DHT22;12054;53.662;10.126;2022-08-01T13:20:04;26.80;75.70
23748;DHT22;12054;53.662;10.126;2022-08-01T13:22:37;26.80;75.90
23748;DHT22;12054;53.662;10.126;2022-08-01T13:25:13;26.90;75.30
23748;DHT22;12054;53.662;10.126;2022-08-01T13:27:39;26.90;74.40
23748;DHT22;12054;53.662;10.126;2022-08-01T13:30:16;26.90;74.20
23748;DHT22;12054;53.662;10.126;2022-08-01T13:32:44;27.00;74.00
23748;DHT22;12054;53.662;10.126;2022-08-01T13:35:12;27.10;74.00
23748;DHT22;12054;53.662;10.126;2022-08-01T13:37:40;27.10;73.50
23748;DHT22;12054;53.662;10.126;2022-08-01T13:40:07;27.10;73.20
23748;DHT22;12054;53.662;10.126;2022-08-01T13:42:33;27.10;72.50
23748;DHT22;12054;53.662;10.126;2022-08-01T13:44:59;27.10;71.70
23748;DHT22;12054;53.662;10.126;2022-08-01T13:47:24;27.00;71.10
23748;DHT22;12054;53.662;10.126;2022-08-01T13:49:50;26.90;71.00
23748;DHT22;12054;53.662;10.126;2022-08-01T13:52:16;26.90;71.10
23748;DHT22;12054;53.662;10.126;2022-08-01T13:54:41;26.80;71.50
23748;DHT22;12054;53.662;10.126;2022-08-01T13:57:06;26.90;71.60
23748;DHT22;12054;53.662;10.126;2022-08-01T13:59:32;26.90;70.30
23748;DHT22;12054;53.662;10.126;2022-08-01T14:01:58;26.80;70.10
23748;DHT22;12054;53.662;10.126;2022-08-01T14:04:23;26.80;69.70
23748;DHT22;12054;53.662;10.126;2022-08-01T14:06:49;26.70;69.90
23748;DHT22;12054;53.662;10.126;2022-08-01T14:09:14;26.60;69.70
23748;DHT22;12054;53.662;10.126;2022-08-01T14:11:42;26.60;69.50
23748;DHT22;12054;53.662;10.126;2022-08-01T14:14:08;26.50;68.80
23748;DHT22;12054;53.662;10.126;2022-08-01T14:16:34;26.50;69.30
23748;DHT22;12054;53.662;10.126;2022-08-01T14:18:59;26.40;70.00
23748;DHT22;12054;53.662;10.126;2022-08-01T14:21:25;26.40;70.90
23748;DHT22;12054;53.662;10.126;2022-08-01T14:23:51;26.40;71.20
23748;DHT22;12054;53.662;10.126;2022-08-01T14:26:16;26.40;71.20
23748;DHT22;12054;53.662;10.126;2022-08-01T14:28:42;26.40;71.00
23748;DHT22;12054;53.662;10.126;2022-08-01T14:31:07;26.40;71.00
23748;DHT22;12054;53.662;10.126;2022-08-01T14:33:33;26.40;70.80
23748;DHT22;12054;53.662;10.126;2022-08-01T14:35:59;26.40;71.00
23748;DHT22;12054;53.662;10.126;2022-08-01T14:38:25;26.40;71.00
23748;DHT22;12054;53.662;10.126;2022-08-01T14:40:50;26.40;70.10
23748;DHT22;12054;53.662;10.126;2022-08-01T14:43:17;26.40;70.00
23748;DHT22;12054;53.662;10.126;2022-08-01T14:45:43;26.30;70.90
23748;DHT22;12054;53.662;10.126;2022-08-01T14:48:08;26.30;70.40
23748;DHT22;12054;53.662;10.126;2022-08-01T14:50:34;26.20;70.60
23748;DHT22;12054;53.662;10.126;2022-08-01T14:52:59;26.20;71.00
23748;DHT22;12054;53.662;10.126;2022-08-01T14:55:25;26.20;70.80
23748;DHT22;12054;53.662;10.126;2022-08-01T14:57:52;26.10;70.80
23748;DHT22;12054;53.662;10.126;2022-08-01T15:00:18;26.10;70.80
23748;DHT22;12054;53.662;10.126;2022-08-01T15:02:43;26.10;71.00
23748;DHT22;12054;53.662;10.126;2022-08-01T15:05:09;26.10;71.30
23748;DHT22;12054;53.662;10.126;2022-08-01T15:07:36;26.00;71.50
23748;DHT22;12054;53.662;10.126;2022-08-01T15:10:03;26.00;71.70
23748;DHT22;12054;53.662;10.126;2022-08-01T15:12:29;25.90;71.00
23748;DHT22;12054;53.662;10.126;2022-08-01T15:14:54;25.80;71.20
23748;DHT22;12054;53.662;10.126;2022-08-01T15:17:30;25.70;70.70
23748;DHT22;12054;53.662;10.126;2022-08-01T15:19:59;25.60;70.80
23748;DHT22;12054;53.662;10.126;2022-08-01T15:22:27;25.50;71.10
23748;DHT22;12054;53.662;10.126;2022-08-01T15:24:54;25.40;71.40
23748;DHT22;12054;53.662;10.126;2022-08-01T15:27:20;25.40;71.40
23748;DHT22;12054;53.662;10.126;2022-08-01T15:29:46;25.40;71.80
23748;DHT22;12054;53.662;10.126;2022-08-01T15:32:12;25.40;72.20
23748;DHT22;12054;53.662;10.126;2022-08-01T15:34:38;25.40;72.40
23748;DHT22;12054;53.662;10.126;2022-08-01T15:37:04;25.20;71.50
23748;DHT22;12054;53.662;10.126;2022-08-01T15:39:31;25.20;71.90
23748;DHT22;12054;53.662;10.126;2022-08-01T15:42:03;25.10;71.90
23748;DHT22;12054;53.662;10.126;2022-08-01T15:44:30;25.00;72.00
23748;DHT22;12054;53.662;10.126;2022-08-01T15:46:55;25.00;72.30
23748;DHT22;12054;53.662;10.126;2022-08-01T15:49:21;25.00;72.50
23748;DHT22;12054;53.662;10.126;2022-08-01T15:51:48;24.90;72.80
23748;DHT22;12054;53.662;10.126;2022-08-01T15:54:13;24.90;72.90